createdAt,value
2019-05-28T00:02:10.890Z,98623.16
2019-05-28T00:04:39.304Z,98626.52
2019-05-28T00:07:07.695Z,98621.55
2019-05-28T00:09:36.088Z,98615.63
2019-05-28T00:12:04.617Z,98626.36
2019-05-28T00:14:33.018Z,98621.35
2019-05-28T00:17:01.410Z,98622.16
2019-05-28T00:19:29.841Z,98614.32
2019-05-28T00:21:58.215Z,98613.40
2019-05-28T00:24:27.429Z,98614.64
2019-05-28T00:26:56.080Z,98618.19
2019-05-28T00:29:24.498Z,98617.06
2019-05-28T00:31:52.891Z,98608.02
2019-05-28T00:34:21.273Z,98612.83
2019-05-28T00:36:49.755Z,98606.95
2019-05-28T00:39:18.151Z,98610.57
2019-05-28T00:41:46.560Z,98612.38
2019-05-28T00:44:14.959Z,98615.63
2019-05-28T00:46:43.506Z,98615.11
2019-05-28T00:49:11.899Z,98604.02
2019-05-28T00:51:42.150Z,98604.34
2019-05-28T00:54:10.712Z,98604.75
2019-05-28T00:56:39.361Z,98595.80
2019-05-28T00:59:08.286Z,98596.91
2019-05-28T01:01:36.706Z,98599.55
2019-05-28T01:04:05.239Z,98597.16
2019-05-28T01:06:33.652Z,98595.57
2019-05-28T01:09:02.422Z,98605.47
2019-05-28T01:11:30.810Z,98602.38
2019-05-28T01:13:59.202Z,98598.41
2019-05-28T01:16:27.618Z,98596.75
2019-05-28T01:18:56.016Z,98591.05
2019-05-28T01:21:24.493Z,98595.87
2019-05-28T01:23:52.889Z,98595.94
2019-05-28T01:26:21.299Z,98597.27
2019-05-28T01:28:49.697Z,98598.91
2019-05-28T01:31:18.106Z,98599.12
2019-05-28T01:33:46.501Z,98598.95
2019-05-28T01:36:14.906Z,98594.98
2019-05-28T01:38:43.386Z,98588.22
2019-05-28T01:41:11.798Z,98590.43
2019-05-28T01:43:40.190Z,98588.36
2019-05-28T01:46:08.866Z,98595.05
2019-05-28T01:48:37.258Z,98583.95
2019-05-28T01:51:05.663Z,98580.58
2019-05-28T01:53:34.076Z,98583.80
2019-05-28T01:56:02.515Z,98577.61
2019-05-28T01:58:30.919Z,98577.69
2019-05-28T02:01:12.288Z,98581.39
2019-05-28T02:03:29.442Z,98582.08
2019-05-28T02:05:57.842Z,98579.47
2019-05-28T02:08:26.255Z,98585.27
2019-05-28T02:10:54.648Z,98578.21
2019-05-28T02:13:23.302Z,98589.78
2019-05-28T02:15:51.718Z,98582.02
2019-05-28T02:18:20.120Z,98587.54
2019-05-28T02:20:48.532Z,98578.06
2019-05-28T02:23:16.921Z,98576.47
2019-05-28T02:25:45.323Z,98574.17
2019-05-28T02:28:13.727Z,98574.11
2019-05-28T02:30:42.122Z,98576.08
2019-05-28T02:33:10.541Z,98575.28
2019-05-28T02:35:38.935Z,98570.17
2019-05-28T02:38:07.346Z,98573.41
2019-05-28T02:40:35.737Z,98570.81
2019-05-28T02:43:04.871Z,98580.51
2019-05-28T02:45:33.274Z,98582.70
2019-05-28T02:48:02.047Z,98584.17
2019-05-28T02:50:54.618Z,98579.84
2019-05-28T02:53:23.269Z,98581.63
2019-05-28T02:55:52.702Z,98576.30
2019-05-28T02:58:21.852Z,98574.63
2019-05-28T03:00:50.608Z,98575.28
2019-05-28T03:03:21.888Z,98575.02
2019-05-28T03:05:52.224Z,98581.84
2019-05-28T03:08:24.133Z,98585.95
2019-05-28T03:11:01.283Z,98584.75
2019-05-28T03:13:22.798Z,98579.55
2019-05-28T03:15:54.247Z,98585.32
2019-05-28T03:18:24.705Z,98579.13
2019-05-28T03:20:54.434Z,98576.91
2019-05-28T03:23:25.992Z,98572.94
2019-05-28T03:25:54.761Z,98583.95
2019-05-28T03:28:23.360Z,98586.20
2019-05-28T03:30:51.799Z,98584.34
2019-05-28T03:33:20.266Z,98581.13
2019-05-28T03:35:51.106Z,98580.56
2019-05-28T03:38:22.158Z,98579.22
2019-05-28T03:40:50.871Z,98583.98
2019-05-28T03:43:19.272Z,98569.80
2019-05-28T03:45:47.695Z,98578.70
2019-05-28T03:48:16.156Z,98576.83
2019-05-28T03:50:44.863Z,98568.72
2019-05-28T03:53:13.694Z,98569.75
2019-05-28T03:55:42.094Z,98568.02
2019-05-28T03:58:10.490Z,98575.45
2019-05-28T04:00:39.070Z,98569.72
2019-05-28T04:03:07.466Z,98569.70
2019-05-28T04:05:35.877Z,98572.75
2019-05-28T04:08:04.433Z,98572.34
2019-05-28T04:10:33.060Z,98565.25
2019-05-28T04:13:01.458Z,98563.52
2019-05-28T04:15:29.866Z,98562.61
2019-05-28T04:17:58.257Z,98559.55
2019-05-28T04:20:26.743Z,98561.78
2019-05-28T04:22:55.497Z,98558.77
2019-05-28T04:25:24.151Z,98550.41
2019-05-28T04:27:52.565Z,98559.23
2019-05-28T04:30:21.655Z,98565.41
2019-05-28T04:32:50.302Z,98565.46
2019-05-28T04:35:18.775Z,98566.83
2019-05-28T04:37:47.164Z,98570.30
2019-05-28T04:40:15.651Z,98569.72
2019-05-28T04:42:44.049Z,98569.66
2019-05-28T04:45:13.585Z,98571.34
2019-05-28T04:47:42.008Z,98570.43
2019-05-28T04:50:10.640Z,98579.11
2019-05-28T04:52:39.030Z,98587.73
2019-05-28T04:55:07.509Z,98582.48
2019-05-28T04:57:35.908Z,98588.73
2019-05-28T05:00:08.998Z,98589.70
2019-05-28T05:02:37.407Z,98585.86
2019-05-28T05:05:07.244Z,98583.59
2019-05-28T05:07:35.647Z,98587.91
2019-05-28T05:10:06.924Z,98587.38
2019-05-28T05:12:35.338Z,98590.79
2019-05-28T05:15:04.591Z,98594.67
2019-05-28T05:17:33.032Z,98591.58
2019-05-28T05:20:01.451Z,98594.66
2019-05-28T05:22:29.842Z,98594.11
2019-05-28T05:24:58.236Z,98588.67
2019-05-28T05:27:26.650Z,98589.89
2019-05-28T05:29:55.044Z,98590.30
2019-05-28T05:32:27.504Z,98592.81
2019-05-28T05:34:53.658Z,98592.26
2019-05-28T05:37:22.066Z,98593.83
2019-05-28T05:39:50.496Z,98602.39
2019-05-28T05:42:19.042Z,98600.98
2019-05-28T05:44:47.425Z,98598.67
2019-05-28T05:47:15.854Z,98599.41
2019-05-28T05:49:44.263Z,98602.78
2019-05-28T05:52:12.731Z,98595.23
2019-05-28T05:54:41.155Z,98599.92
2019-05-28T05:57:09.576Z,98599.86
2019-05-28T05:59:38.333Z,98602.07
2019-05-28T06:02:06.735Z,98603.55
2019-05-28T06:04:35.127Z,98606.25
2019-05-28T06:07:03.524Z,98601.72
2019-05-28T06:09:31.936Z,98605.03
2019-05-28T06:12:00.351Z,98612.41
2019-05-28T06:14:28.743Z,98614.23
2019-05-28T06:16:57.158Z,98612.75
2019-05-28T06:19:25.547Z,98617.85
2019-05-28T06:21:53.938Z,98620.28
2019-05-28T06:24:22.355Z,98628.16
2019-05-28T06:26:50.749Z,98626.95
2019-05-28T06:29:19.151Z,98624.84
2019-05-28T06:31:47.581Z,98627.26
2019-05-28T06:34:16.001Z,98625.46
2019-05-28T06:36:44.382Z,98625.11
2019-05-28T06:39:12.784Z,98624.64
2019-05-28T06:41:41.179Z,98622.52
2019-05-28T06:44:09.961Z,98623.24
2019-05-28T06:46:38.362Z,98621.77
2019-05-28T06:49:06.762Z,98626.41
2019-05-28T06:51:35.162Z,98624.34
2019-05-28T06:54:03.659Z,98626.61
2019-05-28T06:56:32.077Z,98632.20
2019-05-28T06:59:00.477Z,98637.27
2019-05-28T07:01:28.890Z,98633.38
2019-05-28T07:04:12.705Z,98636.10
2019-05-28T07:06:27.410Z,98643.00
2019-05-28T07:08:55.814Z,98650.22
2019-05-28T07:11:24.207Z,98653.60
2019-05-28T07:13:52.682Z,98651.98
2019-05-28T07:16:21.654Z,98648.61
2019-05-28T07:18:50.039Z,98654.64
2019-05-28T07:21:18.432Z,98653.91
2019-05-28T07:23:46.865Z,98651.84
2019-05-28T07:26:15.269Z,98653.45
2019-05-28T07:28:43.659Z,98650.69
2019-05-28T07:31:12.080Z,98648.99
2019-05-28T07:33:40.784Z,98655.33
2019-05-28T07:36:09.423Z,98656.18
2019-05-28T07:38:37.832Z,98652.87
2019-05-28T07:41:06.222Z,98657.66
2019-05-28T07:43:34.618Z,98652.55
2019-05-28T07:46:03.041Z,98651.70
2019-05-28T07:48:31.435Z,98649.97
2019-05-28T07:50:59.833Z,98646.07
2019-05-28T07:53:39.322Z,98654.88
2019-05-28T07:55:58.374Z,98654.30
2019-05-28T07:58:26.841Z,98649.69
2019-05-28T08:00:55.261Z,98656.52
2019-05-28T08:03:23.984Z,98652.70
2019-05-28T08:05:52.393Z,98643.55
2019-05-28T08:08:21.317Z,98644.75
2019-05-28T08:10:49.727Z,98641.61
2019-05-28T08:13:18.141Z,98644.05
2019-05-28T08:15:46.547Z,98646.67
2019-05-28T08:18:14.945Z,98642.45
2019-05-28T08:20:43.359Z,98648.05
2019-05-28T08:23:11.830Z,98649.70
2019-05-28T08:25:47.332Z,98650.91
2019-05-28T08:28:19.750Z,98652.26
2019-05-28T08:30:40.493Z,98651.69
2019-05-28T08:33:09.327Z,98656.45
2019-05-28T08:35:37.879Z,98644.57
2019-05-28T08:38:06.270Z,98643.03
2019-05-28T08:40:34.749Z,98642.31
2019-05-28T08:43:03.153Z,98639.69
2019-05-28T08:45:31.571Z,98628.47
2019-05-28T08:48:00.820Z,98629.91
2019-05-28T08:50:34.462Z,98617.05
2019-05-28T08:52:59.521Z,98619.14
2019-05-28T08:55:28.216Z,98618.50
2019-05-28T08:57:56.629Z,98624.44
2019-05-28T09:00:44.671Z,98617.95
2019-05-28T09:03:13.305Z,98616.25
2019-05-28T09:05:41.697Z,98608.05
2019-05-28T09:08:10.264Z,98620.03
2019-05-28T09:10:38.666Z,98606.91
2019-05-28T09:13:07.088Z,98609.34
2019-05-28T09:15:35.541Z,98602.53
2019-05-28T09:18:04.621Z,98607.27
2019-05-28T09:20:33.103Z,98611.73
2019-05-28T09:23:01.517Z,98612.80
2019-05-28T09:25:29.900Z,98616.53
2019-05-28T09:27:58.367Z,98617.13
2019-05-28T09:30:26.944Z,98622.88
2019-05-28T09:32:55.486Z,98627.55
2019-05-28T09:35:23.845Z,98629.03
2019-05-28T09:37:52.395Z,98636.67
2019-05-28T09:40:21.522Z,98634.30
2019-05-28T09:42:50.182Z,98637.86
2019-05-28T09:45:22.777Z,98633.22
2019-05-28T09:47:49.742Z,98627.29
2019-05-28T09:50:30.056Z,98644.87
2019-05-28T09:52:54.935Z,98646.91
2019-05-28T09:55:19.775Z,98642.57
2019-05-28T09:57:48.409Z,98637.30
2019-05-28T10:00:21.082Z,98641.30
2019-05-28T10:02:50.594Z,98643.01
2019-05-28T10:05:20.972Z,98628.13
2019-05-28T10:07:50.409Z,98629.36
2019-05-28T10:10:19.953Z,98633.28
2019-05-28T10:12:48.367Z,98623.59
2019-05-28T10:15:18.722Z,98625.47
2019-05-28T10:17:47.188Z,98622.16
2019-05-28T10:20:16.724Z,98614.52
2019-05-28T10:22:45.122Z,98610.45
2019-05-28T10:25:13.956Z,98613.66
2019-05-28T10:27:59.179Z,98610.78
2019-05-28T10:30:13.567Z,98613.75
2019-05-28T10:32:42.086Z,98619.52
2019-05-28T10:35:11.136Z,98620.23
2019-05-28T10:37:39.535Z,98616.53
2019-05-28T10:40:09.881Z,98629.41
2019-05-28T10:42:38.519Z,98636.31
2019-05-28T10:45:09.917Z,98632.35
2019-05-28T10:47:38.353Z,98660.08
2019-05-28T10:50:08.162Z,98672.91
2019-05-28T10:52:36.589Z,98694.45
2019-05-28T10:55:08.520Z,98699.06
2019-05-28T10:57:37.244Z,98708.82
2019-05-28T11:00:07.681Z,98710.29
2019-05-28T11:02:36.063Z,98705.44
2019-05-28T11:05:09.447Z,98711.10
2019-05-28T11:07:37.842Z,98702.61
2019-05-28T11:10:23.358Z,98709.88
2019-05-28T11:12:39.993Z,98709.10
2019-05-28T11:15:10.696Z,98702.75
2019-05-28T11:17:39.446Z,98700.19
2019-05-28T11:20:08.977Z,98698.55
2019-05-28T11:22:37.404Z,98700.53
2019-05-28T11:25:07.838Z,98702.25
2019-05-28T11:27:36.247Z,98692.89
2019-05-28T11:30:09.878Z,98692.58
2019-05-28T11:32:38.528Z,98693.39
2019-05-28T11:35:07.767Z,98692.52
2019-05-28T11:37:36.180Z,98690.77
2019-05-28T11:40:07.854Z,98690.48
2019-05-28T11:42:36.257Z,98697.98
2019-05-28T11:45:07.365Z,98690.61
2019-05-28T11:47:35.853Z,98684.70
2019-05-28T11:50:06.839Z,98681.59
2019-05-28T11:52:35.250Z,98685.37
2019-05-28T11:55:05.327Z,98683.30
2019-05-28T11:57:33.739Z,98679.41
2019-05-28T12:00:02.135Z,98689.49
2019-05-28T12:02:30.545Z,98687.57
2019-05-28T12:04:58.948Z,98682.92
2019-05-28T12:07:27.362Z,98690.42
2019-05-28T12:09:55.767Z,98688.45
2019-05-28T12:12:24.179Z,98708.56
2019-05-28T12:14:52.573Z,98717.98
2019-05-28T12:17:38.014Z,98730.46
2019-05-28T12:19:51.138Z,98743.70
2019-05-28T12:22:19.594Z,98749.06
2019-05-28T12:24:48.060Z,98741.30
2019-05-28T12:27:16.732Z,98746.86
2019-05-28T12:29:51.860Z,98747.36
2019-05-28T12:32:15.250Z,98753.48
2019-05-28T12:34:43.932Z,98753.13
2019-05-28T12:37:12.325Z,98757.81
2019-05-28T12:39:40.747Z,98752.85
2019-05-28T12:42:09.141Z,98749.41
2019-05-28T12:44:42.322Z,98742.09
2019-05-28T12:47:07.676Z,98745.84
2019-05-28T12:49:36.129Z,98748.28
2019-05-28T12:52:04.637Z,98740.42
2019-05-28T12:54:33.046Z,98737.75
2019-05-28T12:57:01.445Z,98738.02
2019-05-28T12:59:29.858Z,98733.39
2019-05-28T13:01:58.250Z,98729.55
2019-05-28T13:04:26.658Z,98731.79
2019-05-28T13:06:55.053Z,98722.20
2019-05-28T13:09:23.714Z,98726.58
2019-05-28T13:11:52.154Z,98729.40
2019-05-28T13:14:21.236Z,98735.05
2019-05-28T13:16:49.677Z,98734.78
2019-05-28T13:19:18.067Z,98738.72
2019-05-28T13:21:46.461Z,98754.58
2019-05-28T13:24:14.861Z,98767.56
2019-05-28T13:26:43.276Z,98783.80
2019-05-28T13:29:11.684Z,98787.45
2019-05-28T13:31:40.085Z,98791.50
2019-05-28T13:34:08.496Z,98796.66
2019-05-28T13:36:36.885Z,98802.16
2019-05-28T13:39:07.766Z,98808.30
2019-05-28T13:41:36.158Z,98809.05
2019-05-28T13:44:08.119Z,98805.80
2019-05-28T13:46:36.220Z,98810.86
2019-05-28T13:49:04.685Z,98806.84
2019-05-28T13:51:33.072Z,98802.52
2019-05-28T13:54:01.497Z,98794.88
2019-05-28T13:56:29.908Z,98800.48
2019-05-28T13:58:58.308Z,98800.60
2019-05-28T14:01:26.765Z,98800.66
2019-05-28T14:03:55.558Z,98800.58
2019-05-28T14:06:23.961Z,98799.07
2019-05-28T14:08:52.378Z,98798.88
2019-05-28T14:11:21.106Z,98796.17
2019-05-28T14:13:49.496Z,98800.11
2019-05-28T14:16:17.897Z,98798.50
2019-05-28T14:18:46.288Z,98791.25
2019-05-28T14:21:14.717Z,98798.53
2019-05-28T14:23:43.123Z,98793.08
2019-05-28T14:26:11.883Z,98785.61
2019-05-28T14:28:40.275Z,98786.92
2019-05-28T14:31:08.686Z,98787.25
2019-05-28T14:33:37.070Z,98794.80
2019-05-28T14:36:05.554Z,98789.31
2019-05-28T14:38:33.951Z,98792.25
2019-05-28T14:41:02.584Z,98785.88
2019-05-28T14:43:31.066Z,98788.28
2019-05-28T14:45:59.500Z,98781.63
2019-05-28T14:48:27.943Z,98779.66
2019-05-28T14:50:56.351Z,98790.19
2019-05-28T14:53:24.815Z,98794.59
2019-05-28T14:55:53.211Z,98793.44
2019-05-28T14:58:21.629Z,98794.95
2019-05-28T15:00:50.034Z,98795.88
2019-05-28T15:03:18.479Z,98797.92
2019-05-28T15:05:46.893Z,98795.08
2019-05-28T15:08:15.288Z,98802.39
2019-05-28T15:10:43.706Z,98799.10
2019-05-28T15:13:12.099Z,98796.28
2019-05-28T15:15:40.827Z,98797.31
2019-05-28T15:18:09.205Z,98797.83
2019-05-28T15:20:37.606Z,98803.47
2019-05-28T15:23:06.012Z,98816.44
2019-05-28T15:25:34.405Z,98817.50
2019-05-28T15:28:02.822Z,98822.36
2019-05-28T15:30:31.223Z,98826.95
2019-05-28T15:32:59.638Z,98838.29
2019-05-28T15:35:28.031Z,98841.52
2019-05-28T15:37:56.460Z,98852.63
2019-05-28T15:40:24.916Z,98864.41
2019-05-28T15:43:05.657Z,98860.53
2019-05-28T15:45:24.293Z,98860.53
2019-05-28T15:47:52.702Z,98865.30
2019-05-28T15:50:21.198Z,98882.94
2019-05-28T15:52:49.658Z,98883.61
2019-05-28T15:55:18.152Z,98886.89
2019-05-28T15:57:46.989Z,98891.34
2019-05-28T16:00:23.006Z,98893.41
2019-05-28T16:02:52.648Z,98901.19
2019-05-28T16:05:21.207Z,98902.06
2019-05-28T16:07:49.615Z,98908.21
2019-05-28T16:10:18.352Z,98898.99
2019-05-28T16:12:47.414Z,98901.39
2019-05-28T16:15:16.161Z,98903.38
2019-05-28T16:17:44.570Z,98897.94
2019-05-28T16:20:14.104Z,98902.23
2019-05-28T16:22:42.536Z,98904.41
2019-05-28T16:25:11.658Z,98903.31
2019-05-28T16:27:40.047Z,98913.28
2019-05-28T16:30:10.298Z,98914.34
2019-05-28T16:32:38.775Z,98907.87
2019-05-28T16:35:07.939Z,98916.22
2019-05-28T16:37:36.501Z,98914.58
2019-05-28T16:40:15.050Z,98916.01
2019-05-28T16:42:37.010Z,98919.01
2019-05-28T16:45:07.352Z,98929.83
2019-05-28T16:47:35.743Z,98925.67
2019-05-28T16:50:05.860Z,98927.49
2019-05-28T16:52:34.270Z,98927.81
2019-05-28T16:55:02.743Z,98926.67
2019-05-28T16:57:31.136Z,98936.95
2019-05-28T16:59:59.538Z,98932.44
2019-05-28T17:02:27.952Z,98938.98
2019-05-28T17:04:56.600Z,98944.71
2019-05-28T17:07:24.993Z,98951.50
2019-05-28T17:09:53.408Z,98950.78
2019-05-28T17:12:22.065Z,98964.05
2019-05-28T17:14:50.498Z,98964.45
2019-05-28T17:17:18.895Z,98963.25
2019-05-28T17:19:47.325Z,98973.36
2019-05-28T17:22:15.713Z,98971.53
2019-05-28T17:24:44.135Z,98969.59
2019-05-28T17:27:12.554Z,98976.86
2019-05-28T17:29:40.981Z,98986.87
2019-05-28T17:32:17.276Z,98991.09
2019-05-28T17:34:45.681Z,98983.52
2019-05-28T17:37:14.070Z,98977.89
2019-05-28T17:39:42.498Z,98984.55
2019-05-28T17:42:25.275Z,98989.38
2019-05-28T17:44:54.693Z,98990.84
2019-05-28T17:47:23.103Z,98999.23
2019-05-28T17:49:57.599Z,99006.69
2019-05-28T17:52:26.012Z,99006.69
2019-05-28T17:54:54.419Z,99007.52
2019-05-28T17:57:22.845Z,99006.77
2019-05-28T17:59:51.294Z,99005.17
2019-05-28T18:02:19.857Z,99017.95
2019-05-28T18:04:51.542Z,99014.05
2019-05-28T18:07:19.933Z,99019.67
2019-05-28T18:09:58.379Z,99031.51
2019-05-28T18:12:26.775Z,99036.66
2019-05-28T18:14:55.163Z,99049.60
2019-05-28T18:17:23.582Z,99046.19
2019-05-28T18:19:51.978Z,99054.73
2019-05-28T18:22:20.373Z,99059.91
2019-05-28T18:24:48.787Z,99065.14
2019-05-28T18:27:17.193Z,99065.46
2019-05-28T18:29:45.826Z,99066.55
2019-05-28T18:32:14.246Z,99076.63
2019-05-28T18:34:42.669Z,99078.08
2019-05-28T18:37:11.040Z,99077.15
2019-05-28T18:39:39.455Z,99081.78
2019-05-28T18:42:07.860Z,99084.70
2019-05-28T18:44:36.252Z,99089.20
2019-05-28T18:47:04.660Z,99095.93
2019-05-28T18:49:33.316Z,99101.47
2019-05-28T18:52:02.048Z,99106.78
2019-05-28T18:54:30.434Z,99121.66
2019-05-28T18:56:58.844Z,99123.31
2019-05-28T18:59:27.338Z,99124.55
2019-05-28T19:01:59.064Z,99130.58
2019-05-28T19:04:27.677Z,99127.66
2019-05-28T19:06:56.097Z,99131.30
2019-05-28T19:09:24.516Z,99129.97
2019-05-28T19:11:52.917Z,99135.42
2019-05-28T19:14:21.680Z,99141.67
2019-05-28T19:16:50.129Z,99146.11
2019-05-28T19:19:18.530Z,99147.78
2019-05-28T19:21:50.445Z,99147.78
2019-05-28T19:24:17.097Z,99158.81
2019-05-28T19:27:01.037Z,99164.59
2019-05-28T19:29:29.436Z,99170.58
2019-05-28T19:32:02.641Z,99174.84
2019-05-28T19:34:32.873Z,99177.56
2019-05-28T19:37:03.759Z,99182.23
2019-05-28T19:39:32.879Z,99183.78
2019-05-28T19:42:01.294Z,99195.02
2019-05-28T19:44:29.692Z,99204.45
2019-05-28T19:46:58.119Z,99205.02
2019-05-28T19:49:26.519Z,99208.23
2019-05-28T19:51:54.928Z,99206.88
2019-05-28T19:54:23.327Z,99218.61
2019-05-28T19:56:51.730Z,99223.39
2019-05-28T19:59:20.120Z,99227.93
2019-05-28T20:01:48.515Z,99238.95
2019-05-28T20:04:16.922Z,99242.17
2019-05-28T20:06:45.312Z,99245.89
2019-05-28T20:09:13.724Z,99250.06
2019-05-28T20:11:42.125Z,99256.94
2019-05-28T20:14:10.538Z,99263.67
2019-05-28T20:16:38.931Z,99267.33
2019-05-28T20:19:07.391Z,99272.27
2019-05-28T20:21:35.801Z,99278.56
2019-05-28T20:24:04.675Z,99283.25
2019-05-28T20:26:33.068Z,99289.05
2019-05-28T20:29:08.318Z,99283.42
2019-05-28T20:31:31.599Z,99284.45
2019-05-28T20:34:01.162Z,99287.25
2019-05-28T20:36:29.622Z,99292.70
2019-05-28T20:38:59.532Z,99299.93
2019-05-28T20:41:28.066Z,99306.38
2019-05-28T20:43:56.495Z,99302.72
2019-05-28T20:46:25.062Z,99313.92
2019-05-28T20:48:53.502Z,99309.30
2019-05-28T20:51:22.277Z,99309.45
2019-05-28T20:53:50.680Z,99317.77
2019-05-28T20:56:19.063Z,99316.02
2019-05-28T20:58:47.477Z,99319.53
2019-05-28T21:01:15.887Z,99320.81
2019-05-28T21:03:44.283Z,99316.89
2019-05-28T21:06:12.678Z,99319.59
2019-05-28T21:08:41.091Z,99319.73
2019-05-28T21:11:09.489Z,99325.98
2019-05-28T21:13:37.907Z,99329.63
2019-05-28T21:16:06.291Z,99326.17
2019-05-28T21:18:34.697Z,99331.08
2019-05-28T21:21:03.094Z,99332.48
2019-05-28T21:23:31.489Z,99337.86
2019-05-28T21:26:00.803Z,99337.94
2019-05-28T21:28:29.531Z,99343.27
2019-05-28T21:30:58.879Z,99348.59
2019-05-28T21:33:27.261Z,99339.41
2019-05-28T21:35:55.673Z,99343.83
2019-05-28T21:38:24.075Z,99346.05
2019-05-28T21:40:53.480Z,99350.42
2019-05-28T21:43:21.941Z,99353.95
2019-05-28T21:45:50.422Z,99352.66
2019-05-28T21:48:18.812Z,99347.81
2019-05-28T21:50:47.208Z,99357.48
2019-05-28T21:53:15.693Z,99361.86
2019-05-28T21:55:44.347Z,99364.50
2019-05-28T21:58:12.739Z,99371.07
2019-05-28T22:00:45.839Z,99366.68
2019-05-28T22:03:14.500Z,99373.73
2019-05-28T22:05:42.954Z,99375.02
2019-05-28T22:08:11.372Z,99378.52
2019-05-28T22:10:39.769Z,99378.95
2019-05-28T22:13:20.188Z,99376.36
2019-05-28T22:15:38.369Z,99381.17
2019-05-28T22:18:06.912Z,99388.64
2019-05-28T22:20:35.361Z,99392.95
2019-05-28T22:23:04.640Z,99391.58
2019-05-28T22:25:33.209Z,99394.17
2019-05-28T22:28:02.806Z,99393.27
2019-05-28T22:30:31.252Z,99388.84
2019-05-28T22:32:59.985Z,99390.56
2019-05-28T22:35:28.537Z,99395.04
2019-05-28T22:37:57.161Z,99400.30
2019-05-28T22:40:25.694Z,99409.02
2019-05-28T22:42:54.104Z,99411.19
2019-05-28T22:45:22.483Z,99423.89
2019-05-28T22:47:51.831Z,99421.27
2019-05-28T22:50:23.228Z,99426.06
2019-05-28T22:52:50.684Z,99426.89
2019-05-28T22:55:19.418Z,99423.70
2019-05-28T22:57:47.800Z,99433.15
2019-05-28T23:00:19.504Z,99436.11
2019-05-28T23:02:47.953Z,99434.83
2019-05-28T23:05:16.478Z,99437.67
2019-05-28T23:07:44.874Z,99436.02
2019-05-28T23:10:13.835Z,99437.83
2019-05-28T23:12:42.494Z,99433.42
2019-05-28T23:15:12.331Z,99440.80
2019-05-28T23:17:40.742Z,99445.13
2019-05-28T23:20:10.992Z,99450.81
2019-05-28T23:22:39.649Z,99450.81
2019-05-28T23:25:09.636Z,99450.38
2019-05-28T23:27:38.158Z,99443.84
2019-05-28T23:30:21.431Z,99449.97
2019-05-28T23:32:37.972Z,99449.97
2019-05-28T23:35:08.914Z,99453.88
2019-05-28T23:37:37.541Z,99464.41
2019-05-28T23:40:09.328Z,99467.91
2019-05-28T23:42:37.935Z,99474.45
2019-05-28T23:45:09.989Z,99477.95
2019-05-28T23:47:38.390Z,99476.61
2019-05-28T23:50:08.541Z,99480.05
2019-05-28T23:52:37.629Z,99482.67
2019-05-28T23:55:07.618Z,99483.23
2019-05-28T23:57:36.146Z,99485.03
